sensor_id;sensor_type;location;lat;lon;timestamp;P1;durP1;ratioP1;P2;durP2;ratioP2
35699;SDS011;21818;51.078;12.108;2023-11-18T00:00:16;2.97;;;1.17;;
35699;SDS011;21818;51.078;12.108;2023-11-18T00:02:42;2.58;;;1.92;;
35699;SDS011;21818;51.078;12.108;2023-11-18T00:05:08;3.40;;;1.67;;
35699;SDS011;21818;51.078;12.108;2023-11-18T00:07:35;3.72;;;1.75;;
35699;SDS011;21818;51.078;12.108;2023-11-18T00:10:00;4.07;;;1.65;;
35699;SDS011;21818;51.078;12.108;2023-11-18T00:12:26;2.20;;;1.50;;
35699;SDS011;21818;51.078;12.108;2023-11-18T00:14:52;3.30;;;1.88;;
35699;SDS011;21818;51.078;12.108;2023-11-18T00:17:17;3.38;;;1.50;;
35699;SDS011;21818;51.078;12.108;2023-11-18T00:19:45;2.90;;;1.55;;
35699;SDS011;21818;51.078;12.108;2023-11-18T00:22:10;3.28;;;1.38;;
35699;SDS011;21818;51.078;12.108;2023-11-18T00:24:36;6.93;;;1.70;;
35699;SDS011;21818;51.078;12.108;2023-11-18T00:27:03;2.85;;;1.55;;
35699;SDS011;21818;51.078;12.108;2023-11-18T00:29:32;3.38;;;1.80;;
35699;SDS011;21818;51.078;12.108;2023-11-18T00:31:58;4.65;;;1.60;;
35699;SDS011;21818;51.078;12.108;2023-11-18T00:34:24;2.60;;;1.50;;
35699;SDS011;21818;51.078;12.108;2023-11-18T00:36:50;3.47;;;1.73;;
35699;SDS011;21818;51.078;12.108;2023-11-18T00:39:17;3.95;;;1.73;;
35699;SDS011;21818;51.078;12.108;2023-11-18T00:41:42;3.25;;;1.98;;
35699;SDS011;21818;51.078;12.108;2023-11-18T00:44:08;3.08;;;1.77;;
35699;SDS011;21818;51.078;12.108;2023-11-18T00:46:34;3.08;;;1.80;;
35699;SDS011;21818;51.078;12.108;2023-11-18T00:49:01;4.18;;;1.63;;
35699;SDS011;21818;51.078;12.108;2023-11-18T00:51:27;3.28;;;1.63;;
35699;SDS011;21818;51.078;12.108;2023-11-18T00:53:53;3.35;;;1.75;;
35699;SDS011;21818;51.078;12.108;2023-11-18T00:56:20;4.32;;;2.28;;
35699;SDS011;21818;51.078;12.108;2023-11-18T00:58:46;4.18;;;2.25;;
35699;SDS011;21818;51.078;12.108;2023-11-18T01:01:12;3.42;;;2.00;;
35699;SDS011;21818;51.078;12.108;2023-11-18T01:03:38;3.63;;;1.80;;
35699;SDS011;21818;51.078;12.108;2023-11-18T01:06:04;4.25;;;1.85;;
35699;SDS011;21818;51.078;12.108;2023-11-18T01:08:31;3.42;;;2.10;;
35699;SDS011;21818;51.078;12.108;2023-11-18T01:10:57;3.35;;;1.77;;
35699;SDS011;21818;51.078;12.108;2023-11-18T01:13:22;3.55;;;1.80;;
35699;SDS011;21818;51.078;12.108;2023-11-18T01:15:48;5.68;;;1.70;;
35699;SDS011;21818;51.078;12.108;2023-11-18T01:18:14;3.30;;;1.92;;
35699;SDS011;21818;51.078;12.108;2023-11-18T01:20:40;3.28;;;1.95;;
35699;SDS011;21818;51.078;12.108;2023-11-18T01:23:05;3.80;;;2.40;;
35699;SDS011;21818;51.078;12.108;2023-11-18T01:25:31;3.58;;;1.95;;
35699;SDS011;21818;51.078;12.108;2023-11-18T01:27:56;3.08;;;1.90;;
35699;SDS011;21818;51.078;12.108;2023-11-18T01:30:22;4.28;;;2.20;;
35699;SDS011;21818;51.078;12.108;2023-11-18T01:32:49;4.10;;;1.95;;
35699;SDS011;21818;51.078;12.108;2023-11-18T01:35:14;4.45;;;2.28;;
35699;SDS011;21818;51.078;12.108;2023-11-18T01:37:40;3.40;;;1.77;;
35699;SDS011;21818;51.078;12.108;2023-11-18T01:40:06;4.50;;;2.05;;
35699;SDS011;21818;51.078;12.108;2023-11-18T01:42:43;4.57;;;2.33;;
35699;SDS011;21818;51.078;12.108;2023-11-18T01:45:11;4.13;;;2.30;;
35699;SDS011;21818;51.078;12.108;2023-11-18T01:47:37;4.60;;;2.53;;
35699;SDS011;21818;51.078;12.108;2023-11-18T01:50:05;3.90;;;2.00;;
35699;SDS011;21818;51.078;12.108;2023-11-18T01:52:33;2.83;;;1.80;;
35699;SDS011;21818;51.078;12.108;2023-11-18T01:55:00;5.20;;;2.42;;
35699;SDS011;21818;51.078;12.108;2023-11-18T01:57:28;3.60;;;1.83;;
35699;SDS011;21818;51.078;12.108;2023-11-18T01:59:54;4.53;;;2.20;;
35699;SDS011;21818;51.078;12.108;2023-11-18T02:02:20;6.00;;;2.33;;
35699;SDS011;21818;51.078;12.108;2023-11-18T02:04:46;3.90;;;1.98;;
35699;SDS011;21818;51.078;12.108;2023-11-18T02:07:12;3.28;;;2.28;;
35699;SDS011;21818;51.078;12.108;2023-11-18T02:09:40;7.65;;;2.10;;
35699;SDS011;21818;51.078;12.108;2023-11-18T02:14:47;3.77;;;1.87;;
35699;SDS011;21818;51.078;12.108;2023-11-18T02:17:15;3.75;;;2.30;;
35699;SDS011;21818;51.078;12.108;2023-11-18T02:19:45;3.28;;;2.10;;
35699;SDS011;21818;51.078;12.108;2023-11-18T02:22:11;3.97;;;2.38;;
35699;SDS011;21818;51.078;12.108;2023-11-18T02:24:37;8.88;;;2.80;;
35699;SDS011;21818;51.078;12.108;2023-11-18T02:27:05;3.95;;;2.20;;
35699;SDS011;21818;51.078;12.108;2023-11-18T02:29:34;3.55;;;2.42;;
35699;SDS011;21818;51.078;12.108;2023-11-18T02:32:23;5.28;;;2.28;;
35699;SDS011;21818;51.078;12.108;2023-11-18T02:37:30;4.15;;;2.55;;
35699;SDS011;21818;51.078;12.108;2023-11-18T02:40:00;5.90;;;2.72;;
35699;SDS011;21818;51.078;12.108;2023-11-18T02:42:33;6.72;;;2.75;;
35699;SDS011;21818;51.078;12.108;2023-11-18T02:45:03;5.28;;;3.03;;
35699;SDS011;21818;51.078;12.108;2023-11-18T02:47:32;7.53;;;3.60;;
35699;SDS011;21818;51.078;12.108;2023-11-18T02:49:58;5.32;;;3.40;;
35699;SDS011;21818;51.078;12.108;2023-11-18T02:52:30;5.25;;;3.10;;
35699;SDS011;21818;51.078;12.108;2023-11-18T02:54:58;5.78;;;3.47;;
35699;SDS011;21818;51.078;12.108;2023-11-18T02:57:24;3.75;;;2.33;;
35699;SDS011;21818;51.078;12.108;2023-11-18T02:59:50;8.68;;;3.10;;
35699;SDS011;21818;51.078;12.108;2023-11-18T03:02:16;5.70;;;3.15;;
35699;SDS011;21818;51.078;12.108;2023-11-18T03:04:41;5.05;;;3.00;;
35699;SDS011;21818;51.078;12.108;2023-11-18T03:07:09;6.25;;;2.95;;
35699;SDS011;21818;51.078;12.108;2023-11-18T03:09:35;4.90;;;3.00;;
35699;SDS011;21818;51.078;12.108;2023-11-18T03:12:03;5.38;;;2.63;;
35699;SDS011;21818;51.078;12.108;2023-11-18T03:14:29;5.32;;;2.92;;
35699;SDS011;21818;51.078;12.108;2023-11-18T03:16:54;5.55;;;2.97;;
35699;SDS011;21818;51.078;12.108;2023-11-18T03:19:20;6.07;;;2.70;;
35699;SDS011;21818;51.078;12.108;2023-11-18T03:21:55;5.43;;;2.60;;
35699;SDS011;21818;51.078;12.108;2023-11-18T03:24:21;6.22;;;2.50;;
35699;SDS011;21818;51.078;12.108;2023-11-18T03:26:46;4.50;;;2.10;;
35699;SDS011;21818;51.078;12.108;2023-11-18T03:29:13;3.90;;;2.25;;
35699;SDS011;21818;51.078;12.108;2023-11-18T03:31:38;4.47;;;2.40;;
35699;SDS011;21818;51.078;12.108;2023-11-18T03:34:04;4.18;;;2.10;;
35699;SDS011;21818;51.078;12.108;2023-11-18T03:36:29;4.90;;;2.58;;
35699;SDS011;21818;51.078;12.108;2023-11-18T03:38:55;5.15;;;2.80;;
35699;SDS011;21818;51.078;12.108;2023-11-18T03:41:20;3.47;;;2.20;;
35699;SDS011;21818;51.078;12.108;2023-11-18T03:43:48;8.50;;;2.40;;
35699;SDS011;21818;51.078;12.108;2023-11-18T03:46:14;3.78;;;2.40;;
35699;SDS011;21818;51.078;12.108;2023-11-18T03:48:40;5.15;;;2.70;;
35699;SDS011;21818;51.078;12.108;2023-11-18T03:51:09;3.58;;;2.45;;
35699;SDS011;21818;51.078;12.108;2023-11-18T03:53:34;6.40;;;2.90;;
35699;SDS011;21818;51.078;12.108;2023-11-18T03:56:00;4.05;;;2.80;;
35699;SDS011;21818;51.078;12.108;2023-11-18T03:58:27;6.28;;;2.30;;
35699;SDS011;21818;51.078;12.108;2023-11-18T04:00:53;3.78;;;2.13;;
35699;SDS011;21818;51.078;12.108;2023-11-18T04:03:19;4.00;;;2.55;;
35699;SDS011;21818;51.078;12.108;2023-11-18T04:05:44;5.97;;;2.58;;
35699;SDS011;21818;51.078;12.108;2023-11-18T04:08:10;4.57;;;2.50;;
35699;SDS011;21818;51.078;12.108;2023-11-18T04:10:36;4.95;;;2.47;;
35699;SDS011;21818;51.078;12.108;2023-11-18T04:13:02;5.80;;;2.90;;
35699;SDS011;21818;51.078;12.108;2023-11-18T04:15:27;7.40;;;2.60;;
35699;SDS011;21818;51.078;12.108;2023-11-18T04:17:53;6.50;;;2.78;;
35699;SDS011;21818;51.078;12.108;2023-11-18T04:20:19;4.50;;;2.88;;
35699;SDS011;21818;51.078;12.108;2023-11-18T04:22:44;4.03;;;2.63;;
35699;SDS011;21818;51.078;12.108;2023-11-18T04:25:11;4.88;;;2.72;;
35699;SDS011;21818;51.078;12.108;2023-11-18T04:27:37;4.80;;;2.53;;
35699;SDS011;21818;51.078;12.108;2023-11-18T04:30:03;4.57;;;2.35;;
35699;SDS011;21818;51.078;12.108;2023-11-18T04:32:29;6.22;;;2.53;;
35699;SDS011;21818;51.078;12.108;2023-11-18T04:34:57;4.78;;;2.20;;
35699;SDS011;21818;51.078;12.108;2023-11-18T04:37:24;7.05;;;2.45;;
35699;SDS011;21818;51.078;12.108;2023-11-18T04:39:50;4.68;;;2.40;;
35699;SDS011;21818;51.078;12.108;2023-11-18T04:42:16;5.43;;;2.53;;
35699;SDS011;21818;51.078;12.108;2023-11-18T04:44:41;5.85;;;3.35;;
35699;SDS011;21818;51.078;12.108;2023-11-18T04:47:07;3.30;;;2.10;;
35699;SDS011;21818;51.078;12.108;2023-11-18T04:49:32;5.03;;;2.45;;
35699;SDS011;21818;51.078;12.108;2023-11-18T04:51:58;7.68;;;2.30;;
35699;SDS011;21818;51.078;12.108;2023-11-18T04:54:24;7.13;;;2.28;;
35699;SDS011;21818;51.078;12.108;2023-11-18T04:56:49;4.60;;;2.10;;
35699;SDS011;21818;51.078;12.108;2023-11-18T04:59:15;5.18;;;2.45;;
35699;SDS011;21818;51.078;12.108;2023-11-18T05:01:42;3.95;;;2.03;;
35699;SDS011;21818;51.078;12.108;2023-11-18T05:04:08;3.63;;;2.10;;
35699;SDS011;21818;51.078;12.108;2023-11-18T05:06:34;4.78;;;2.17;;
35699;SDS011;21818;51.078;12.108;2023-11-18T05:09:00;2.97;;;2.08;;
35699;SDS011;21818;51.078;12.108;2023-11-18T05:11:25;4.55;;;1.95;;
35699;SDS011;21818;51.078;12.108;2023-11-18T05:13:51;2.95;;;1.77;;
35699;SDS011;21818;51.078;12.108;2023-11-18T05:16:16;4.10;;;1.80;;
35699;SDS011;21818;51.078;12.108;2023-11-18T05:18:42;3.38;;;1.80;;
35699;SDS011;21818;51.078;12.108;2023-11-18T05:21:08;3.40;;;1.88;;
35699;SDS011;21818;51.078;12.108;2023-11-18T05:23:34;4.03;;;2.05;;
35699;SDS011;21818;51.078;12.108;2023-11-18T05:26:03;4.10;;;2.30;;
35699;SDS011;21818;51.078;12.108;2023-11-18T05:28:30;3.72;;;1.98;;
35699;SDS011;21818;51.078;12.108;2023-11-18T05:30:56;4.60;;;1.67;;
35699;SDS011;21818;51.078;12.108;2023-11-18T05:33:27;3.05;;;2.05;;
35699;SDS011;21818;51.078;12.108;2023-11-18T05:35:53;3.47;;;1.88;;
35699;SDS011;21818;51.078;12.108;2023-11-18T05:38:19;4.95;;;2.88;;
35699;SDS011;21818;51.078;12.108;2023-11-18T05:40:49;4.20;;;2.70;;
35699;SDS011;21818;51.078;12.108;2023-11-18T05:43:24;3.88;;;2.47;;
35699;SDS011;21818;51.078;12.108;2023-11-18T05:45:54;6.10;;;2.42;;
35699;SDS011;21818;51.078;12.108;2023-11-18T05:48:37;4.18;;;2.17;;
35699;SDS011;21818;51.078;12.108;2023-11-18T05:51:03;4.03;;;2.28;;
35699;SDS011;21818;51.078;12.108;2023-11-18T05:53:30;4.00;;;2.65;;
35699;SDS011;21818;51.078;12.108;2023-11-18T05:55:56;6.00;;;3.20;;
35699;SDS011;21818;51.078;12.108;2023-11-18T05:58:21;6.10;;;3.42;;
35699;SDS011;21818;51.078;12.108;2023-11-18T06:00:47;6.25;;;3.63;;
35699;SDS011;21818;51.078;12.108;2023-11-18T06:03:12;4.75;;;2.92;;
35699;SDS011;21818;51.078;12.108;2023-11-18T06:05:38;4.57;;;3.08;;
35699;SDS011;21818;51.078;12.108;2023-11-18T06:08:04;5.85;;;3.10;;
35699;SDS011;21818;51.078;12.108;2023-11-18T06:10:30;5.20;;;2.63;;
35699;SDS011;21818;51.078;12.108;2023-11-18T06:12:59;5.93;;;2.70;;
35699;SDS011;21818;51.078;12.108;2023-11-18T06:15:25;5.97;;;2.83;;
35699;SDS011;21818;51.078;12.108;2023-11-18T06:17:52;6.25;;;2.38;;
35699;SDS011;21818;51.078;12.108;2023-11-18T06:20:20;4.57;;;2.72;;
35699;SDS011;21818;51.078;12.108;2023-11-18T06:22:47;4.85;;;2.58;;
35699;SDS011;21818;51.078;12.108;2023-11-18T06:25:13;3.97;;;2.45;;
35699;SDS011;21818;51.078;12.108;2023-11-18T06:27:38;4.55;;;2.38;;
35699;SDS011;21818;51.078;12.108;2023-11-18T06:30:04;7.32;;;3.35;;
35699;SDS011;21818;51.078;12.108;2023-11-18T06:32:31;6.50;;;3.35;;
35699;SDS011;21818;51.078;12.108;2023-11-18T06:34:57;7.13;;;2.42;;
35699;SDS011;21818;51.078;12.108;2023-11-18T06:37:23;4.55;;;2.85;;
35699;SDS011;21818;51.078;12.108;2023-11-18T06:39:49;4.97;;;2.92;;
35699;SDS011;21818;51.078;12.108;2023-11-18T06:42:15;5.93;;;3.20;;
35699;SDS011;21818;51.078;12.108;2023-11-18T06:44:41;9.38;;;4.55;;
35699;SDS011;21818;51.078;12.108;2023-11-18T06:47:06;5.57;;;2.92;;
35699;SDS011;21818;51.078;12.108;2023-11-18T06:49:32;4.82;;;2.60;;
35699;SDS011;21818;51.078;12.108;2023-11-18T06:52:01;7.97;;;3.05;;
35699;SDS011;21818;51.078;12.108;2023-11-18T06:54:29;5.45;;;2.85;;
35699;SDS011;21818;51.078;12.108;2023-11-18T06:56:55;5.50;;;2.88;;
35699;SDS011;21818;51.078;12.108;2023-11-18T06:59:21;5.35;;;2.80;;
35699;SDS011;21818;51.078;12.108;2023-11-18T07:01:47;5.97;;;2.78;;
35699;SDS011;21818;51.078;12.108;2023-11-18T07:04:12;4.07;;;2.50;;
35699;SDS011;21818;51.078;12.108;2023-11-18T07:06:39;6.53;;;2.72;;
35699;SDS011;21818;51.078;12.108;2023-11-18T07:09:05;4.53;;;2.53;;
35699;SDS011;21818;51.078;12.108;2023-11-18T07:11:39;6.35;;;2.83;;
35699;SDS011;21818;51.078;12.108;2023-11-18T07:14:06;4.28;;;2.70;;
35699;SDS011;21818;51.078;12.108;2023-11-18T07:16:34;6.22;;;2.20;;
35699;SDS011;21818;51.078;12.108;2023-11-18T07:19:00;8.13;;;1.83;;
35699;SDS011;21818;51.078;12.108;2023-11-18T07:21:28;5.88;;;1.75;;
35699;SDS011;21818;51.078;12.108;2023-11-18T07:23:54;3.28;;;1.55;;
35699;SDS011;21818;51.078;12.108;2023-11-18T07:26:19;8.75;;;1.88;;
35699;SDS011;21818;51.078;12.108;2023-11-18T07:28:45;4.20;;;1.48;;
35699;SDS011;21818;51.078;12.108;2023-11-18T07:31:11;3.42;;;1.65;;
35699;SDS011;21818;51.078;12.108;2023-11-18T07:33:37;3.50;;;1.80;;
35699;SDS011;21818;51.078;12.108;2023-11-18T07:36:03;4.85;;;2.15;;
35699;SDS011;21818;51.078;12.108;2023-11-18T07:38:31;4.38;;;1.73;;
35699;SDS011;21818;51.078;12.108;2023-11-18T07:40:58;6.50;;;1.92;;
35699;SDS011;21818;51.078;12.108;2023-11-18T07:43:24;2.15;;;1.45;;
35699;SDS011;21818;51.078;12.108;2023-11-18T07:45:51;3.55;;;1.58;;
35699;SDS011;21818;51.078;12.108;2023-11-18T07:48:18;2.45;;;1.30;;
35699;SDS011;21818;51.078;12.108;2023-11-18T07:50:45;2.30;;;1.55;;
35699;SDS011;21818;51.078;12.108;2023-11-18T07:53:14;3.25;;;1.77;;
35699;SDS011;21818;51.078;12.108;2023-11-18T07:55:41;3.17;;;1.88;;
35699;SDS011;21818;51.078;12.108;2023-11-18T07:58:07;2.15;;;1.08;;
35699;SDS011;21818;51.078;12.108;2023-11-18T08:00:40;2.53;;;1.00;;
35699;SDS011;21818;51.078;12.108;2023-11-18T08:03:07;1.88;;;1.08;;
35699;SDS011;21818;51.078;12.108;2023-11-18T08:05:43;2.47;;;1.58;;
35699;SDS011;21818;51.078;12.108;2023-11-18T08:08:13;3.50;;;0.80;;
35699;SDS011;21818;51.078;12.108;2023-11-18T08:10:42;2.33;;;1.15;;
35699;SDS011;21818;51.078;12.108;2023-11-18T08:13:09;1.60;;;0.80;;
35699;SDS011;21818;51.078;12.108;2023-11-18T08:15:39;2.45;;;0.82;;
35699;SDS011;21818;51.078;12.108;2023-11-18T08:18:06;1.60;;;0.80;;
35699;SDS011;21818;51.078;12.108;2023-11-18T08:20:33;2.95;;;1.00;;
35699;SDS011;21818;51.078;12.108;2023-11-18T08:22:59;1.85;;;1.17;;
35699;SDS011;21818;51.078;12.108;2023-11-18T08:25:24;3.17;;;1.15;;
35699;SDS011;21818;51.078;12.108;2023-11-18T08:27:50;2.20;;;0.98;;
35699;SDS011;21818;51.078;12.108;2023-11-18T08:30:16;1.60;;;0.90;;
35699;SDS011;21818;51.078;12.108;2023-11-18T08:32:43;4.20;;;1.40;;
35699;SDS011;21818;51.078;12.108;2023-11-18T08:35:10;4.50;;;1.02;;
35699;SDS011;21818;51.078;12.108;2023-11-18T08:37:41;1.77;;;0.75;;
35699;SDS011;21818;51.078;12.108;2023-11-18T08:40:13;2.15;;;1.08;;
35699;SDS011;21818;51.078;12.108;2023-11-18T08:42:50;2.92;;;1.65;;
35699;SDS011;21818;51.078;12.108;2023-11-18T08:45:17;3.77;;;2.13;;
35699;SDS011;21818;51.078;12.108;2023-11-18T08:47:47;2.72;;;1.33;;
35699;SDS011;21818;51.078;12.108;2023-11-18T08:50:14;2.38;;;0.93;;
35699;SDS011;21818;51.078;12.108;2023-11-18T08:52:41;3.13;;;1.08;;
35699;SDS011;21818;51.078;12.108;2023-11-18T08:55:15;1.35;;;1.02;;
35699;SDS011;21818;51.078;12.108;2023-11-18T08:57:48;3.60;;;1.25;;
35699;SDS011;21818;51.078;12.108;2023-11-18T09:00:23;6.40;;;2.67;;
35699;SDS011;21818;51.078;12.108;2023-11-18T09:03:09;3.72;;;1.70;;
35699;SDS011;21818;51.078;12.108;2023-11-18T09:05:42;1.38;;;1.02;;
35699;SDS011;21818;51.078;12.108;2023-11-18T09:08:22;4.47;;;1.65;;
35699;SDS011;21818;51.078;12.108;2023-11-18T09:10:57;2.08;;;1.30;;
35699;SDS011;21818;51.078;12.108;2023-11-18T09:13:24;3.70;;;2.05;;
35699;SDS011;21818;51.078;12.108;2023-11-18T09:16:00;4.20;;;1.67;;
35699;SDS011;21818;51.078;12.108;2023-11-18T09:18:28;3.47;;;2.28;;
35699;SDS011;21818;51.078;12.108;2023-11-18T09:20:55;3.15;;;1.50;;
35699;SDS011;21818;51.078;12.108;2023-11-18T09:23:24;2.75;;;1.77;;
35699;SDS011;21818;51.078;12.108;2023-11-18T09:25:50;5.85;;;2.90;;
35699;SDS011;21818;51.078;12.108;2023-11-18T09:28:18;4.20;;;1.88;;
35699;SDS011;21818;51.078;12.108;2023-11-18T09:30:47;3.58;;;2.42;;
35699;SDS011;21818;51.078;12.108;2023-11-18T09:33:21;1.90;;;1.35;;
35699;SDS011;21818;51.078;12.108;2023-11-18T09:35:54;2.15;;;1.10;;
35699;SDS011;21818;51.078;12.108;2023-11-18T09:38:24;2.97;;;1.77;;
35699;SDS011;21818;51.078;12.108;2023-11-18T09:40:57;5.97;;;2.67;;
35699;SDS011;21818;51.078;12.108;2023-11-18T09:43:35;3.63;;;1.90;;
35699;SDS011;21818;51.078;12.108;2023-11-18T09:46:11;3.67;;;1.60;;
35699;SDS011;21818;51.078;12.108;2023-11-18T09:48:47;2.88;;;1.83;;
35699;SDS011;21818;51.078;12.108;2023-11-18T09:51:25;7.05;;;2.80;;
35699;SDS011;21818;51.078;12.108;2023-11-18T09:54:01;5.30;;;2.58;;
35699;SDS011;21818;51.078;12.108;2023-11-18T09:56:41;4.95;;;2.40;;
35699;SDS011;21818;51.078;12.108;2023-11-18T10:01:42;3.95;;;1.63;;
35699;SDS011;21818;51.078;12.108;2023-11-18T10:04:12;4.22;;;1.88;;
35699;SDS011;21818;51.078;12.108;2023-11-18T10:06:42;3.88;;;1.92;;
35699;SDS011;21818;51.078;12.108;2023-11-18T10:09:09;4.47;;;1.90;;
35699;SDS011;21818;51.078;12.108;2023-11-18T10:11:43;2.50;;;1.25;;
35699;SDS011;21818;51.078;12.108;2023-11-18T10:14:12;2.67;;;1.23;;
35699;SDS011;21818;51.078;12.108;2023-11-18T10:16:40;5.15;;;2.30;;
35699;SDS011;21818;51.078;12.108;2023-11-18T10:19:07;3.75;;;1.70;;
35699;SDS011;21818;51.078;12.108;2023-11-18T10:21:37;1.70;;;1.00;;
35699;SDS011;21818;51.078;12.108;2023-11-18T10:24:06;2.50;;;1.15;;
35699;SDS011;21818;51.078;12.108;2023-11-18T10:26:44;3.35;;;1.42;;
35699;SDS011;21818;51.078;12.108;2023-11-18T10:29:19;2.33;;;1.20;;
35699;SDS011;21818;51.078;12.108;2023-11-18T10:31:45;4.15;;;2.28;;
35699;SDS011;21818;51.078;12.108;2023-11-18T10:34:14;4.47;;;2.33;;
35699;SDS011;21818;51.078;12.108;2023-11-18T10:36:59;3.50;;;2.08;;
35699;SDS011;21818;51.078;12.108;2023-11-18T10:39:31;3.25;;;1.25;;
35699;SDS011;21818;51.078;12.108;2023-11-18T10:42:00;1.30;;;0.88;;
35699;SDS011;21818;51.078;12.108;2023-11-18T10:44:27;1.20;;;0.65;;
35699;SDS011;21818;51.078;12.108;2023-11-18T10:46:54;3.85;;;2.45;;
35699;SDS011;21818;51.078;12.108;2023-11-18T10:49:21;3.50;;;1.45;;
35699;SDS011;21818;51.078;12.108;2023-11-18T10:51:47;3.95;;;1.98;;
35699;SDS011;21818;51.078;12.108;2023-11-18T10:54:16;3.55;;;2.17;;
35699;SDS011;21818;51.078;12.108;2023-11-18T10:56:50;3.75;;;1.70;;
35699;SDS011;21818;51.078;12.108;2023-11-18T10:59:21;2.38;;;1.52;;
35699;SDS011;21818;51.078;12.108;2023-11-18T11:01:48;2.10;;;1.40;;
35699;SDS011;21818;51.078;12.108;2023-11-18T11:04:14;3.60;;;1.63;;
35699;SDS011;21818;51.078;12.108;2023-11-18T11:06:47;2.30;;;1.60;;
35699;SDS011;21818;51.078;12.108;2023-11-18T11:09:22;3.47;;;1.70;;
35699;SDS011;21818;51.078;12.108;2023-11-18T11:12:00;3.70;;;2.17;;
35699;SDS011;21818;51.078;12.108;2023-11-18T11:14:42;1.08;;;0.73;;
35699;SDS011;21818;51.078;12.108;2023-11-18T11:17:13;2.70;;;0.80;;
35699;SDS011;21818;51.078;12.108;2023-11-18T11:22:40;4.15;;;1.90;;
35699;SDS011;21818;51.078;12.108;2023-11-18T11:25:24;1.27;;;0.70;;
35699;SDS011;21818;51.078;12.108;2023-11-18T11:28:11;3.85;;;1.60;;
35699;SDS011;21818;51.078;12.108;2023-11-18T11:31:03;1.35;;;0.88;;
35699;SDS011;21818;51.078;12.108;2023-11-18T11:33:39;3.80;;;1.35;;
35699;SDS011;21818;51.078;12.108;2023-11-18T11:36:16;2.13;;;1.10;;
35699;SDS011;21818;51.078;12.108;2023-11-18T11:38:50;3.42;;;2.08;;
35699;SDS011;21818;51.078;12.108;2023-11-18T11:41:17;2.53;;;1.88;;
35699;SDS011;21818;51.078;12.108;2023-11-18T11:43:51;2.50;;;1.50;;
35699;SDS011;21818;51.078;12.108;2023-11-18T11:46:20;2.70;;;1.77;;
35699;SDS011;21818;51.078;12.108;2023-11-18T11:48:48;2.25;;;1.70;;
35699;SDS011;21818;51.078;12.108;2023-11-18T11:51:24;2.50;;;1.45;;
35699;SDS011;21818;51.078;12.108;2023-11-18T11:56:49;2.70;;;1.60;;
35699;SDS011;21818;51.078;12.108;2023-11-18T11:59:36;3.85;;;1.30;;
35699;SDS011;21818;51.078;12.108;2023-11-18T12:02:21;5.10;;;1.63;;
35699;SDS011;21818;51.078;12.108;2023-11-18T12:04:54;1.80;;;1.02;;
35699;SDS011;21818;51.078;12.108;2023-11-18T12:07:23;2.13;;;1.05;;
35699;SDS011;21818;51.078;12.108;2023-11-18T12:09:58;2.20;;;0.73;;
35699;SDS011;21818;51.078;12.108;2023-11-18T12:12:25;1.55;;;0.95;;
35699;SDS011;21818;51.078;12.108;2023-11-18T12:14:58;2.72;;;1.30;;
35699;SDS011;21818;51.078;12.108;2023-11-18T12:23:12;3.42;;;1.30;;
35699;SDS011;21818;51.078;12.108;2023-11-18T12:25:43;1.60;;;1.10;;
35699;SDS011;21818;51.078;12.108;2023-11-18T12:28:16;0.70;;;0.55;;
35699;SDS011;21818;51.078;12.108;2023-11-18T12:30:46;1.67;;;0.80;;
35699;SDS011;21818;51.078;12.108;2023-11-18T12:33:21;1.55;;;0.80;;
35699;SDS011;21818;51.078;12.108;2023-11-18T12:42:02;1.25;;;0.60;;
35699;SDS011;21818;51.078;12.108;2023-11-18T12:44:37;3.00;;;0.75;;
35699;SDS011;21818;51.078;12.108;2023-11-18T12:47:11;0.95;;;0.73;;
35699;SDS011;21818;51.078;12.108;2023-11-18T12:49:44;2.22;;;0.63;;
35699;SDS011;21818;51.078;12.108;2023-11-18T12:52:15;0.70;;;0.55;;
35699;SDS011;21818;51.078;12.108;2023-11-18T12:54:43;1.50;;;0.60;;
35699;SDS011;21818;51.078;12.108;2023-11-18T12:57:15;2.85;;;0.75;;
35699;SDS011;21818;51.078;12.108;2023-11-18T12:59:51;2.95;;;0.80;;
35699;SDS011;21818;51.078;12.108;2023-11-18T13:02:17;1.20;;;0.55;;
35699;SDS011;21818;51.078;12.108;2023-11-18T13:04:45;0.98;;;0.77;;
35699;SDS011;21818;51.078;12.108;2023-11-18T13:07:15;1.40;;;0.70;;
35699;SDS011;21818;51.078;12.108;2023-11-18T13:09:42;1.83;;;0.98;;
35699;SDS011;21818;51.078;12.108;2023-11-18T13:12:10;1.98;;;0.80;;
35699;SDS011;21818;51.078;12.108;2023-11-18T13:14:39;2.08;;;1.10;;
35699;SDS011;21818;51.078;12.108;2023-11-18T13:17:10;1.63;;;0.93;;
35699;SDS011;21818;51.078;12.108;2023-11-18T13:19:37;1.95;;;0.82;;
35699;SDS011;21818;51.078;12.108;2023-11-18T13:22:04;2.22;;;1.40;;
35699;SDS011;21818;51.078;12.108;2023-11-18T13:24:33;2.17;;;1.10;;
35699;SDS011;21818;51.078;12.108;2023-11-18T13:27:04;2.20;;;0.80;;
35699;SDS011;21818;51.078;12.108;2023-11-18T13:29:31;1.75;;;0.95;;
35699;SDS011;21818;51.078;12.108;2023-11-18T13:31:59;1.95;;;0.90;;
35699;SDS011;21818;51.078;12.108;2023-11-18T13:34:28;1.85;;;1.23;;
35699;SDS011;21818;51.078;12.108;2023-11-18T13:37:00;2.35;;;1.42;;
35699;SDS011;21818;51.078;12.108;2023-11-18T13:39:26;2.08;;;1.52;;
35699;SDS011;21818;51.078;12.108;2023-11-18T13:41:52;2.90;;;1.65;;
35699;SDS011;21818;51.078;12.108;2023-11-18T13:47:17;1.92;;;0.80;;
35699;SDS011;21818;51.078;12.108;2023-11-18T13:49:43;0.60;;;0.50;;
35699;SDS011;21818;51.078;12.108;2023-11-18T13:52:12;1.30;;;0.73;;
35699;SDS011;21818;51.078;12.108;2023-11-18T13:54:41;2.53;;;0.85;;
35699;SDS011;21818;51.078;12.108;2023-11-18T13:57:10;1.05;;;0.57;;
35699;SDS011;21818;51.078;12.108;2023-11-18T13:59:36;1.08;;;0.80;;
35699;SDS011;21818;51.078;12.108;2023-11-18T14:02:03;2.03;;;0.90;;
35699;SDS011;21818;51.078;12.108;2023-11-18T14:04:30;1.17;;;0.70;;
35699;SDS011;21818;51.078;12.108;2023-11-18T14:06:59;1.58;;;0.80;;
35699;SDS011;21818;51.078;12.108;2023-11-18T14:09:29;2.40;;;1.02;;
35699;SDS011;21818;51.078;12.108;2023-11-18T14:11:55;0.80;;;0.60;;
35699;SDS011;21818;51.078;12.108;2023-11-18T14:14:21;2.30;;;0.93;;
35699;SDS011;21818;51.078;12.108;2023-11-18T14:16:48;1.10;;;0.50;;
35699;SDS011;21818;51.078;12.108;2023-11-18T14:19:14;1.38;;;0.60;;
35699;SDS011;21818;51.078;12.108;2023-11-18T14:21:40;1.80;;;0.80;;
35699;SDS011;21818;51.078;12.108;2023-11-18T14:24:10;2.05;;;0.90;;
35699;SDS011;21818;51.078;12.108;2023-11-18T14:26:37;1.40;;;0.77;;
35699;SDS011;21818;51.078;12.108;2023-11-18T14:29:06;1.63;;;0.68;;
35699;SDS011;21818;51.078;12.108;2023-11-18T14:31:32;1.13;;;0.60;;
35699;SDS011;21818;51.078;12.108;2023-11-18T14:33:59;1.50;;;0.60;;
35699;SDS011;21818;51.078;12.108;2023-11-18T14:36:27;1.30;;;0.80;;
35699;SDS011;21818;51.078;12.108;2023-11-18T14:38:53;1.33;;;0.75;;
35699;SDS011;21818;51.078;12.108;2023-11-18T14:41:19;1.63;;;0.80;;
35699;SDS011;21818;51.078;12.108;2023-11-18T14:43:49;1.33;;;0.90;;
35699;SDS011;21818;51.078;12.108;2023-11-18T14:46:15;1.60;;;0.90;;
35699;SDS011;21818;51.078;12.108;2023-11-18T14:48:41;1.70;;;0.65;;
35699;SDS011;21818;51.078;12.108;2023-11-18T14:51:07;1.27;;;0.68;;
35699;SDS011;21818;51.078;12.108;2023-11-18T14:53:33;1.25;;;0.70;;
35699;SDS011;21818;51.078;12.108;2023-11-18T14:56:02;0.82;;;0.63;;
35699;SDS011;21818;51.078;12.108;2023-11-18T14:58:30;1.60;;;0.80;;
35699;SDS011;21818;51.078;12.108;2023-11-18T15:00:57;0.55;;;0.50;;
35699;SDS011;21818;51.078;12.108;2023-11-18T15:03:24;0.98;;;0.50;;
35699;SDS011;21818;51.078;12.108;2023-11-18T15:05:50;1.00;;;0.75;;
35699;SDS011;21818;51.078;12.108;2023-11-18T15:08:15;2.15;;;0.90;;